sensor_id;sensor_type;location;lat;lon;timestamp;pressure;altitude;pressure_sealevel;temperature;humidity
38716;BME280;24833;49.324;8.694;2023-09-19T00:01:00;99338.31;;;17.11;85.42
38716;BME280;24833;49.324;8.694;2023-09-19T00:03:27;99343.16;;;17.09;84.58
38716;BME280;24833;49.324;8.694;2023-09-19T00:05:58;99344.78;;;17.10;85.30
38716;BME280;24833;49.324;8.694;2023-09-19T00:08:25;99342.09;;;17.10;84.81
38716;BME280;24833;49.324;8.694;2023-09-19T00:10:54;99336.69;;;17.10;84.75
38716;BME280;24833;49.324;8.694;2023-09-19T00:13:21;99341.88;;;17.12;84.98
38716;BME280;24833;49.324;8.694;2023-09-19T00:15:48;99345.38;;;17.12;85.52
38716;BME280;24833;49.324;8.694;2023-09-19T00:18:18;99344.56;;;17.12;85.88
38716;BME280;24833;49.324;8.694;2023-09-19T00:20:49;99338.59;;;17.10;85.81
38716;BME280;24833;49.324;8.694;2023-09-19T00:23:18;99349.97;;;17.12;85.99
38716;BME280;24833;49.324;8.694;2023-09-19T00:25:47;99341.03;;;17.11;85.96
38716;BME280;24833;49.324;8.694;2023-09-19T00:28:14;99351.25;;;17.09;85.48
38716;BME280;24833;49.324;8.694;2023-09-19T00:30:43;99347.50;;;17.10;85.14
38716;BME280;24833;49.324;8.694;2023-09-19T00:33:11;99351.25;;;17.09;85.01
38716;BME280;24833;49.324;8.694;2023-09-19T00:35:48;99350.44;;;17.09;85.20
38716;BME280;24833;49.324;8.694;2023-09-19T00:38:15;99359.34;;;17.09;86.15
38716;BME280;24833;49.324;8.694;2023-09-19T00:40:48;99357.72;;;17.08;86.50
38716;BME280;24833;49.324;8.694;2023-09-19T00:43:15;99364.19;;;17.07;85.24
38716;BME280;24833;49.324;8.694;2023-09-19T00:45:46;99371.47;;;17.07;86.03
38716;BME280;24833;49.324;8.694;2023-09-19T00:48:20;99370.88;;;17.05;85.92
38716;BME280;24833;49.324;8.694;2023-09-19T00:50:49;99363.84;;;17.04;85.51
38716;BME280;24833;49.324;8.694;2023-09-19T00:53:20;99380.03;;;17.04;85.82
38716;BME280;24833;49.324;8.694;2023-09-19T00:55:50;99366.00;;;17.02;86.34
38716;BME280;24833;49.324;8.694;2023-09-19T00:58:20;99375.97;;;17.01;85.80
38716;BME280;24833;49.324;8.694;2023-09-19T01:00:51;99377.28;;;16.99;86.20
38716;BME280;24833;49.324;8.694;2023-09-19T01:03:20;99376.44;;;16.98;86.27
38716;BME280;24833;49.324;8.694;2023-09-19T01:05:49;99374.81;;;16.97;86.51
38716;BME280;24833;49.324;8.694;2023-09-19T01:08:18;99397.72;;;16.95;85.84
38716;BME280;24833;49.324;8.694;2023-09-19T01:11:06;99392.59;;;16.93;86.17
38716;BME280;24833;49.324;8.694;2023-09-19T01:13:58;99391.19;;;16.91;85.53
38716;BME280;24833;49.324;8.694;2023-09-19T01:16:57;99395.75;;;16.90;86.24
38716;BME280;24833;49.324;8.694;2023-09-19T01:20:11;99400.59;;;16.88;85.38
38716;BME280;24833;49.324;8.694;2023-09-19T01:28:30;99404.34;;;16.87;85.33
38716;BME280;24833;49.324;8.694;2023-09-19T01:31:07;99404.34;;;16.87;85.87
38716;BME280;24833;49.324;8.694;2023-09-19T01:34:02;99403.53;;;16.86;85.84
38716;BME280;24833;49.324;8.694;2023-09-19T01:36:36;99401.66;;;16.87;85.48
38716;BME280;24833;49.324;8.694;2023-09-19T01:39:09;99404.34;;;16.87;85.79
38716;BME280;24833;49.324;8.694;2023-09-19T01:47:33;99397.31;;;16.86;86.39
38716;BME280;24833;49.324;8.694;2023-09-19T01:50:31;99402.94;;;16.84;85.95
38716;BME280;24833;49.324;8.694;2023-09-19T01:53:10;99399.44;;;16.84;85.50
38716;BME280;24833;49.324;8.694;2023-09-19T01:55:48;99415.63;;;16.84;85.63
38716;BME280;24833;49.324;8.694;2023-09-19T01:58:34;99416.69;;;16.83;84.42
38716;BME280;24833;49.324;8.694;2023-09-19T02:01:03;99419.94;;;16.85;85.03
38716;BME280;24833;49.324;8.694;2023-09-19T02:03:34;99419.94;;;16.85;85.11
38716;BME280;24833;49.324;8.694;2023-09-19T02:06:03;99418.91;;;16.86;85.84
38716;BME280;24833;49.324;8.694;2023-09-19T02:08:32;99421.00;;;16.84;85.07
38716;BME280;24833;49.324;8.694;2023-09-19T02:11:00;99428.03;;;16.85;85.36
38716;BME280;24833;49.324;8.694;2023-09-19T02:13:27;99430.72;;;16.85;84.71
38716;BME280;24833;49.324;8.694;2023-09-19T02:15:55;99428.88;;;16.85;84.71
38716;BME280;24833;49.324;8.694;2023-09-19T02:18:22;99435.31;;;16.84;85.05
38716;BME280;24833;49.324;8.694;2023-09-19T02:20:50;99425.34;;;16.85;85.40
38716;BME280;24833;49.324;8.694;2023-09-19T02:23:18;99431.81;;;16.84;85.21
38716;BME280;24833;49.324;8.694;2023-09-19T02:25:53;99435.31;;;16.84;84.87
38716;BME280;24833;49.324;8.694;2023-09-19T02:28:21;99439.88;;;16.84;85.18
38716;BME280;24833;49.324;8.694;2023-09-19T02:30:49;99440.69;;;16.84;85.34
38716;BME280;24833;49.324;8.694;2023-09-19T02:33:17;99437.78;;;16.86;86.20
38716;BME280;24833;49.324;8.694;2023-09-19T02:35:44;99448.56;;;16.86;85.55
38716;BME280;24833;49.324;8.694;2023-09-19T02:38:11;99439.41;;;16.87;86.16
38716;BME280;24833;49.324;8.694;2023-09-19T02:40:39;99448.56;;;16.86;86.23
38716;BME280;24833;49.324;8.694;2023-09-19T02:43:07;99441.31;;;16.86;85.56
38716;BME280;24833;49.324;8.694;2023-09-19T02:45:36;99454.78;;;16.86;85.40
38716;BME280;24833;49.324;8.694;2023-09-19T02:48:03;99454.78;;;16.86;85.74
38716;BME280;24833;49.324;8.694;2023-09-19T02:50:31;99451.28;;;16.86;85.26
38716;BME280;24833;49.324;8.694;2023-09-19T02:52:58;99457.22;;;16.88;86.18
38716;BME280;24833;49.324;8.694;2023-09-19T02:55:25;99454.78;;;16.86;85.64
38716;BME280;24833;49.324;8.694;2023-09-19T02:57:53;99455.00;;;16.85;85.21
38716;BME280;24833;49.324;8.694;2023-09-19T03:00:24;99458.56;;;16.85;85.88
38716;BME280;24833;49.324;8.694;2023-09-19T03:02:54;99461.25;;;16.85;85.49
38716;BME280;24833;49.324;8.694;2023-09-19T03:05:23;99463.94;;;16.85;85.03
38716;BME280;24833;49.324;8.694;2023-09-19T03:07:51;99457.69;;;16.85;85.31
38716;BME280;24833;49.324;8.694;2023-09-19T03:10:20;99466.38;;;16.87;85.78
38716;BME280;24833;49.324;8.694;2023-09-19T03:12:48;99458.56;;;16.85;84.85
38716;BME280;24833;49.324;8.694;2023-09-19T03:15:17;99456.66;;;16.86;84.97
38716;BME280;24833;49.324;8.694;2023-09-19T03:17:47;99463.94;;;16.85;84.78
38716;BME280;24833;49.324;8.694;2023-09-19T03:20:18;99466.38;;;16.87;84.46
38716;BME280;24833;49.324;8.694;2023-09-19T03:22:47;99468.50;;;16.85;84.44
38716;BME280;24833;49.324;8.694;2023-09-19T03:25:16;99476.59;;;16.85;84.13
38716;BME280;24833;49.324;8.694;2023-09-19T03:27:47;99474.94;;;16.84;84.40
38716;BME280;24833;49.324;8.694;2023-09-19T03:30:15;99478.72;;;16.83;84.79
38716;BME280;24833;49.324;8.694;2023-09-19T03:32:46;99484.63;;;16.80;84.71
38716;BME280;24833;49.324;8.694;2023-09-19T03:35:14;99477.34;;;16.80;84.19
38716;BME280;24833;49.324;8.694;2023-09-19T03:37:42;99482.97;;;16.79;84.44
38716;BME280;24833;49.324;8.694;2023-09-19T03:40:10;99479.44;;;16.78;84.65
38716;BME280;24833;49.324;8.694;2023-09-19T03:42:42;99490.47;;;16.77;84.29
38716;BME280;24833;49.324;8.694;2023-09-19T03:45:12;99491.53;;;16.76;83.93
38716;BME280;24833;49.324;8.694;2023-09-19T03:47:45;99491.53;;;16.76;84.23
38716;BME280;24833;49.324;8.694;2023-09-19T03:50:16;99488.28;;;16.74;84.33
38716;BME280;24833;49.324;8.694;2023-09-19T03:52:45;99490.97;;;16.74;84.22
38716;BME280;24833;49.324;8.694;2023-09-19T03:55:12;99491.22;;;16.72;84.16
38716;BME280;24833;49.324;8.694;2023-09-19T03:57:40;99493.06;;;16.72;83.96
38716;BME280;24833;49.324;8.694;2023-09-19T04:00:09;99492.03;;;16.73;84.06
38716;BME280;24833;49.324;8.694;2023-09-19T04:02:40;99499.53;;;16.71;83.75
38716;BME280;24833;49.324;8.694;2023-09-19T04:05:08;99492.50;;;16.70;84.01
38716;BME280;24833;49.324;8.694;2023-09-19T04:07:36;99492.50;;;16.70;83.79
38716;BME280;24833;49.324;8.694;2023-09-19T04:10:03;99497.06;;;16.69;84.07
38716;BME280;24833;49.324;8.694;2023-09-19T04:12:31;99494.34;;;16.69;83.40
38716;BME280;24833;49.324;8.694;2023-09-19T04:14:59;99500.00;;;16.68;83.62
38716;BME280;24833;49.324;8.694;2023-09-19T04:17:26;99492.72;;;16.68;83.49
38716;BME280;24833;49.324;8.694;2023-09-19T04:19:53;99505.41;;;16.68;83.76
38716;BME280;24833;49.324;8.694;2023-09-19T04:22:20;99502.94;;;16.66;83.35
38716;BME280;24833;49.324;8.694;2023-09-19T04:24:47;99512.91;;;16.66;83.63
38716;BME280;24833;49.324;8.694;2023-09-19T04:27:14;99506.72;;;16.65;84.14
38716;BME280;24833;49.324;8.694;2023-09-19T04:29:42;99511.75;;;16.61;83.51
38716;BME280;24833;49.324;8.694;2023-09-19T04:32:09;99515.50;;;16.60;83.88
38716;BME280;24833;49.324;8.694;2023-09-19T04:34:36;99509.56;;;16.58;83.52
38716;BME280;24833;49.324;8.694;2023-09-19T04:37:05;99514.34;;;16.56;83.10
38716;BME280;24833;49.324;8.694;2023-09-19T04:39:32;99511.06;;;16.54;83.26
38716;BME280;24833;49.324;8.694;2023-09-19T04:42:00;99522.94;;;16.53;83.38
38716;BME280;24833;49.324;8.694;2023-09-19T04:44:28;99523.38;;;16.50;83.23
38716;BME280;24833;49.324;8.694;2023-09-19T04:46:55;99524.44;;;16.49;83.34
38716;BME280;24833;49.324;8.694;2023-09-19T04:49:22;99524.94;;;16.46;82.94
38716;BME280;24833;49.324;8.694;2023-09-19T04:51:50;99529.75;;;16.44;83.52
38716;BME280;24833;49.324;8.694;2023-09-19T04:54:17;99531.88;;;16.42;83.04
38716;BME280;24833;49.324;8.694;2023-09-19T04:56:44;99534.81;;;16.41;83.59
38716;BME280;24833;49.324;8.694;2023-09-19T04:59:12;99543.13;;;16.39;84.06
38716;BME280;24833;49.324;8.694;2023-09-19T05:01:39;99539.84;;;16.37;83.84
38716;BME280;24833;49.324;8.694;2023-09-19T05:04:06;99539.28;;;16.35;84.24
38716;BME280;24833;49.324;8.694;2023-09-19T05:06:33;99540.59;;;16.32;83.50
38716;BME280;24833;49.324;8.694;2023-09-19T05:09:00;99542.69;;;16.30;83.31
38716;BME280;24833;49.324;8.694;2023-09-19T05:11:28;99541.03;;;16.29;83.55
38716;BME280;24833;49.324;8.694;2023-09-19T05:13:57;99535.06;;;16.27;83.86
38716;BME280;24833;49.324;8.694;2023-09-19T05:16:24;99542.34;;;16.27;83.42
38716;BME280;24833;49.324;8.694;2023-09-19T05:18:51;99544.44;;;16.25;84.64
38716;BME280;24833;49.324;8.694;2023-09-19T05:21:19;99550.06;;;16.23;84.47
38716;BME280;24833;49.324;8.694;2023-09-19T05:23:46;99556.78;;;16.21;83.87
38716;BME280;24833;49.324;8.694;2023-09-19T05:26:14;99568.00;;;16.18;83.29
38716;BME280;24833;49.324;8.694;2023-09-19T05:28:43;99570.94;;;16.16;84.14
38716;BME280;24833;49.324;8.694;2023-09-19T05:31:10;99577.41;;;16.15;83.96
38716;BME280;24833;49.324;8.694;2023-09-19T05:33:37;99581.16;;;16.14;84.45
38716;BME280;24833;49.324;8.694;2023-09-19T05:36:04;99580.34;;;16.14;84.27
38716;BME280;24833;49.324;8.694;2023-09-19T05:38:31;99577.06;;;16.12;84.34
38716;BME280;24833;49.324;8.694;2023-09-19T05:40:59;99578.09;;;16.11;83.63
38716;BME280;24833;49.324;8.694;2023-09-19T05:43:26;99579.97;;;16.10;83.89
38716;BME280;24833;49.324;8.694;2023-09-19T05:45:53;99583.72;;;16.09;84.25
38716;BME280;24833;49.324;8.694;2023-09-19T05:48:23;99581.28;;;16.07;83.61
38716;BME280;24833;49.324;8.694;2023-09-19T05:50:50;99579.41;;;16.08;83.51
38716;BME280;24833;49.324;8.694;2023-09-19T05:53:17;99583.72;;;16.09;83.85
38716;BME280;24833;49.324;8.694;2023-09-19T05:55:45;99583.97;;;16.07;83.69
38716;BME280;24833;49.324;8.694;2023-09-19T05:58:12;99588.28;;;16.08;83.83
38716;BME280;24833;49.324;8.694;2023-09-19T06:00:41;99593.44;;;16.10;83.30
38716;BME280;24833;49.324;8.694;2023-09-19T06:03:10;99587.84;;;16.12;84.09
38716;BME280;24833;49.324;8.694;2023-09-19T06:05:38;99597.78;;;16.11;84.21
38716;BME280;24833;49.324;8.694;2023-09-19T06:08:08;99595.94;;;16.12;83.85
38716;BME280;24833;49.324;8.694;2023-09-19T06:10:36;99603.16;;;16.11;84.67
38716;BME280;24833;49.324;8.694;2023-09-19T06:13:04;99595.94;;;16.12;83.93
38716;BME280;24833;49.324;8.694;2023-09-19T06:15:32;99598.63;;;16.12;84.63
38716;BME280;24833;49.324;8.694;2023-09-19T06:18:00;99605.63;;;16.13;84.31
38716;BME280;24833;49.324;8.694;2023-09-19T06:20:29;99618.06;;;16.14;84.19
38716;BME280;24833;49.324;8.694;2023-09-19T06:22:57;99621.31;;;16.16;84.26
38716;BME280;24833;49.324;8.694;2023-09-19T06:25:24;99621.31;;;16.16;84.26
38716;BME280;24833;49.324;8.694;2023-09-19T06:27:52;99630.22;;;16.16;83.79
38716;BME280;24833;49.324;8.694;2023-09-19T06:30:22;99637.03;;;16.19;84.00
38716;BME280;24833;49.324;8.694;2023-09-19T06:32:58;99642.19;;;16.20;83.87
38716;BME280;24833;49.324;8.694;2023-09-19T06:35:27;99639.00;;;16.23;84.26
38716;BME280;24833;49.324;8.694;2023-09-19T06:37:56;99637.94;;;16.24;84.21
38716;BME280;24833;49.324;8.694;2023-09-19T06:40:25;99652.84;;;16.27;83.99
38716;BME280;24833;49.324;8.694;2023-09-19T06:42:53;99653.41;;;16.29;83.95
38716;BME280;24833;49.324;8.694;2023-09-19T06:45:20;99643.19;;;16.31;83.91
38716;BME280;24833;49.324;8.694;2023-09-19T06:47:51;99640.28;;;16.32;84.02
38716;BME280;24833;49.324;8.694;2023-09-19T06:50:21;99643.31;;;16.36;83.58
38716;BME280;24833;49.324;8.694;2023-09-19T06:52:53;99646.59;;;16.38;83.94
38716;BME280;24833;49.324;8.694;2023-09-19T06:55:22;99645.31;;;16.41;83.81
38716;BME280;24833;49.324;8.694;2023-09-19T06:57:55;99649.41;;;16.43;84.70
38716;BME280;24833;49.324;8.694;2023-09-19T07:00:22;99648.34;;;16.44;84.63
38716;BME280;24833;49.324;8.694;2023-09-19T07:03:00;99658.09;;;16.45;84.26
38716;BME280;24833;49.324;8.694;2023-09-19T07:05:31;99659.72;;;16.46;84.05
38716;BME280;24833;49.324;8.694;2023-09-19T07:08:02;99672.97;;;16.48;85.06
38716;BME280;24833;49.324;8.694;2023-09-19T07:10:30;99658.19;;;16.50;84.64
38716;BME280;24833;49.324;8.694;2023-09-19T07:13:05;99662.50;;;16.51;84.64
38716;BME280;24833;49.324;8.694;2023-09-19T07:15:38;99665.56;;;16.55;85.32
38716;BME280;24833;49.324;8.694;2023-09-19T07:18:08;99668.63;;;16.58;85.23
38716;BME280;24833;49.324;8.694;2023-09-19T07:20:38;99674.34;;;16.62;85.27
38716;BME280;24833;49.324;8.694;2023-09-19T07:23:05;99680.91;;;16.66;85.57
38716;BME280;24833;49.324;8.694;2023-09-19T07:25:33;99679.59;;;16.69;85.45
38716;BME280;24833;49.324;8.694;2023-09-19T07:28:02;99687.84;;;16.74;85.46
38716;BME280;24833;49.324;8.694;2023-09-19T07:30:29;99692.50;;;16.78;85.87
38716;BME280;24833;49.324;8.694;2023-09-19T07:32:57;99699.66;;;16.84;85.91
38716;BME280;24833;49.324;8.694;2023-09-19T07:35:24;99692.47;;;16.90;86.21
38716;BME280;24833;49.324;8.694;2023-09-19T07:37:52;99700.94;;;16.94;85.75
38716;BME280;24833;49.324;8.694;2023-09-19T07:40:20;99705.59;;;16.98;85.54
38716;BME280;24833;49.324;8.694;2023-09-19T07:42:50;99701.38;;;17.02;85.74
38716;BME280;24833;49.324;8.694;2023-09-19T07:45:18;99707.94;;;17.06;85.46
38716;BME280;24833;49.324;8.694;2023-09-19T07:47:46;99709.91;;;17.11;85.63
38716;BME280;24833;49.324;8.694;2023-09-19T07:50:17;99702.16;;;17.14;85.13
38716;BME280;24833;49.324;8.694;2023-09-19T07:52:49;99708.22;;;17.22;85.29
38716;BME280;24833;49.324;8.694;2023-09-19T07:55:20;99714.78;;;17.26;85.43
38716;BME280;24833;49.324;8.694;2023-09-19T07:57:54;99724.38;;;17.33;85.04
38716;BME280;24833;49.324;8.694;2023-09-19T08:00:21;99724.47;;;17.38;84.77
38716;BME280;24833;49.324;8.694;2023-09-19T08:02:48;99731.28;;;17.41;83.45
38716;BME280;24833;49.324;8.694;2023-09-19T08:05:24;99716.72;;;17.42;83.42
38716;BME280;24833;49.324;8.694;2023-09-19T08:07:51;99716.47;;;17.43;83.22
38716;BME280;24833;49.324;8.694;2023-09-19T08:10:19;99721.63;;;17.45;83.03
38716;BME280;24833;49.324;8.694;2023-09-19T08:12:48;99722.78;;;17.49;83.33
38716;BME280;24833;49.324;8.694;2023-09-19T08:15:20;99733.69;;;17.54;83.82
38716;BME280;24833;49.324;8.694;2023-09-19T08:17:48;99723.78;;;17.60;83.07
38716;BME280;24833;49.324;8.694;2023-09-19T08:20:16;99734.34;;;17.61;81.53
38716;BME280;24833;49.324;8.694;2023-09-19T08:22:53;99731.66;;;17.61;81.17
38716;BME280;24833;49.324;8.694;2023-09-19T08:25:22;99736.81;;;17.63;81.41
38716;BME280;24833;49.324;8.694;2023-09-19T08:27:50;99737.38;;;17.65;81.45
38716;BME280;24833;49.324;8.694;2023-09-19T08:30:21;99737.72;;;17.68;81.58
38716;BME280;24833;49.324;8.694;2023-09-19T08:32:57;99743.50;;;17.72;81.18
38716;BME280;24833;49.324;8.694;2023-09-19T08:35:26;99745.94;;;17.74;81.08
38716;BME280;24833;49.324;8.694;2023-09-19T08:37:53;99741.38;;;17.74;80.66
38716;BME280;24833;49.324;8.694;2023-09-19T08:40:22;99743.81;;;17.76;81.02
38716;BME280;24833;49.324;8.694;2023-09-19T08:42:55;99749.56;;;17.79;80.80
38716;BME280;24833;49.324;8.694;2023-09-19T08:45:24;99755.28;;;17.83;80.96
38716;BME280;24833;49.324;8.694;2023-09-19T08:48:23;99758.09;;;17.88;81.46
38716;BME280;24833;49.324;8.694;2023-09-19T08:51:08;99760.63;;;17.94;81.41
38716;BME280;24833;49.324;8.694;2023-09-19T08:53:47;99759.66;;;18.01;81.31
38716;BME280;24833;49.324;8.694;2023-09-19T08:56:18;99759.75;;;18.06;81.09
38716;BME280;24833;49.324;8.694;2023-09-19T08:58:57;99760.41;;;18.13;81.35
38716;BME280;24833;49.324;8.694;2023-09-19T09:01:28;99754.84;;;18.19;80.98
38716;BME280;24833;49.324;8.694;2023-09-19T09:03:56;99754.91;;;18.24;81.09
38716;BME280;24833;49.324;8.694;2023-09-19T09:06:25;99753.34;;;18.29;81.03
38716;BME280;24833;49.324;8.694;2023-09-19T09:08:52;99766.97;;;18.34;79.56
38716;BME280;24833;49.324;8.694;2023-09-19T09:11:20;99762.03;;;18.31;78.39
38716;BME280;24833;49.324;8.694;2023-09-19T09:13:48;99762.03;;;18.31;79.21
38716;BME280;24833;49.324;8.694;2023-09-19T09:16:16;99758.25;;;18.32;78.42
38716;BME280;24833;49.324;8.694;2023-09-19T09:18:47;99757.78;;;18.35;78.46
38716;BME280;24833;49.324;8.694;2023-09-19T09:21:22;99762.44;;;18.39;79.34
38716;BME280;24833;49.324;8.694;2023-09-19T09:23:51;99761.69;;;18.44;77.80
38716;BME280;24833;49.324;8.694;2023-09-19T09:26:43;99764.47;;;18.49;78.55
38716;BME280;24833;49.324;8.694;2023-09-19T09:29:10;99766.19;;;18.55;77.83
38716;BME280;24833;49.324;8.694;2023-09-19T09:31:37;99760.88;;;18.60;77.32
38716;BME280;24833;49.324;8.694;2023-09-19T09:34:05;99762.63;;;18.66;78.26
38716;BME280;24833;49.324;8.694;2023-09-19T09:36:39;99761.03;;;18.70;78.28
38716;BME280;24833;49.324;8.694;2023-09-19T09:39:08;99771.66;;;18.77;78.11
38716;BME280;24833;49.324;8.694;2023-09-19T09:41:46;99769.03;;;18.82;76.15
38716;BME280;24833;49.324;8.694;2023-09-19T09:46:47;99767.22;;;18.88;75.56
38716;BME280;24833;49.324;8.694;2023-09-19T09:49:26;99772.66;;;18.88;74.74
38716;BME280;24833;49.324;8.694;2023-09-19T09:52:05;99769.34;;;18.86;74.47
38716;BME280;24833;49.324;8.694;2023-09-19T09:55:05;99765.59;;;18.87;75.51
38716;BME280;24833;49.324;8.694;2023-09-19T09:57:34;99765.34;;;18.88;75.27
38716;BME280;24833;49.324;8.694;2023-09-19T10:00:03;99762.94;;;18.92;74.09
38716;BME280;24833;49.324;8.694;2023-09-19T10:02:39;99767.34;;;18.98;74.16
38716;BME280;24833;49.324;8.694;2023-09-19T10:05:18;99762.09;;;19.08;75.20
38716;BME280;24833;49.324;8.694;2023-09-19T10:07:55;99770.91;;;19.20;73.98
38716;BME280;24833;49.324;8.694;2023-09-19T10:10:36;99763.16;;;19.29;74.01
38716;BME280;24833;49.324;8.694;2023-09-19T10:13:12;99756.72;;;19.35;74.47
38716;BME280;24833;49.324;8.694;2023-09-19T10:15:43;99753.50;;;19.38;74.79
38716;BME280;24833;49.324;8.694;2023-09-19T10:18:27;99760.88;;;19.43;73.03
38716;BME280;24833;49.324;8.694;2023-09-19T10:20:57;99755.19;;;19.44;73.18
38716;BME280;24833;49.324;8.694;2023-09-19T10:23:27;99750.09;;;19.48;74.36
38716;BME280;24833;49.324;8.694;2023-09-19T10:25:57;99749.63;;;19.56;74.56
38716;BME280;24833;49.324;8.694;2023-09-19T10:28:28;99750.63;;;19.72;74.30
38716;BME280;24833;49.324;8.694;2023-09-19T10:30:57;99745.31;;;19.82;73.72
38716;BME280;24833;49.324;8.694;2023-09-19T10:33:26;99749.19;;;19.91;72.06
38716;BME280;24833;49.324;8.694;2023-09-19T10:35:59;99746.56;;;20.01;73.56
38716;BME280;24833;49.324;8.694;2023-09-19T10:38:28;99742.63;;;20.14;73.58
38716;BME280;24833;49.324;8.694;2023-09-19T10:40:57;99738.88;;;20.25;71.68
38716;BME280;24833;49.324;8.694;2023-09-19T10:43:32;99729.22;;;20.34;67.08
38716;BME280;24833;49.324;8.694;2023-09-19T10:46:07;99742.22;;;20.37;68.76
38716;BME280;24833;49.324;8.694;2023-09-19T10:48:37;99761.22;;;20.37;66.24
38716;BME280;24833;49.324;8.694;2023-09-19T10:51:16;99750.63;;;20.36;62.54
38716;BME280;24833;49.324;8.694;2023-09-19T10:54:00;99744.91;;;20.32;64.86
38716;BME280;24833;49.324;8.694;2023-09-19T10:56:36;99763.66;;;20.34;64.87
38716;BME280;24833;49.324;8.694;2023-09-19T10:59:11;99750.31;;;20.32;63.14
38716;BME280;24833;49.324;8.694;2023-09-19T11:16:09;99738.13;;;20.72;64.32
38716;BME280;24833;49.324;8.694;2023-09-19T11:26:57;99731.25;;;21.02;63.54
38716;BME280;24833;49.324;8.694;2023-09-19T11:29:35;99753.81;;;21.12;61.69
38716;BME280;24833;49.324;8.694;2023-09-19T11:32:03;99716.59;;;21.13;61.53
38716;BME280;24833;49.324;8.694;2023-09-19T11:34:40;99723.69;;;21.14;62.24
38716;BME280;24833;49.324;8.694;2023-09-19T11:40:07;99720.44;;;21.17;60.77
38716;BME280;24833;49.324;8.694;2023-09-19T11:42:48;99719.34;;;21.18;63.12
38716;BME280;24833;49.324;8.694;2023-09-19T11:48:24;99713.34;;;21.11;61.59
38716;BME280;24833;49.324;8.694;2023-09-19T11:50:54;99708.44;;;21.08;62.55
38716;BME280;24833;49.324;8.694;2023-09-19T11:53:23;99697.59;;;21.08;63.42
38716;BME280;24833;49.324;8.694;2023-09-19T11:55:51;99707.63;;;21.07;63.49
38716;BME280;24833;49.324;8.694;2023-09-19T11:58:19;99701.13;;;21.08;63.30
38716;BME280;24833;49.324;8.694;2023-09-19T12:00:54;99694.31;;;21.11;61.66
38716;BME280;24833;49.324;8.694;2023-09-19T12:03:29;99697.03;;;21.11;62.39
38716;BME280;24833;49.324;8.694;2023-09-19T12:05:59;99686.47;;;21.14;62.64
38716;BME280;24833;49.324;8.694;2023-09-19T12:08:26;99699.22;;;21.19;61.56
38716;BME280;24833;49.324;8.694;2023-09-19T12:10:54;99686.22;;;21.21;60.62
38716;BME280;24833;49.324;8.694;2023-09-19T12:13:22;99687.31;;;21.25;61.47
38716;BME280;24833;49.324;8.694;2023-09-19T12:15:49;99688.72;;;21.33;61.08
38716;BME280;24833;49.324;8.694;2023-09-19T12:18:30;99677.88;;;21.43;61.37
38716;BME280;24833;49.324;8.694;2023-09-19T12:20:57;99679.78;;;21.53;61.08
38716;BME280;24833;49.324;8.694;2023-09-19T12:23:25;99703.72;;;21.61;57.56
38716;BME280;24833;49.324;8.694;2023-09-19T12:25:54;99676.00;;;21.64;59.65
38716;BME280;24833;49.324;8.694;2023-09-19T12:28:27;99674.63;;;21.71;59.99
38716;BME280;24833;49.324;8.694;2023-09-19T12:30:55;99670.31;;;21.81;59.45
38716;BME280;24833;49.324;8.694;2023-09-19T12:33:23;99679.25;;;21.91;59.44
38716;BME280;24833;49.324;8.694;2023-09-19T12:35:53;99679.25;;;22.01;60.88
38716;BME280;24833;49.324;8.694;2023-09-19T12:38:27;99668.94;;;22.14;62.05
38716;BME280;24833;49.324;8.694;2023-09-19T12:40:56;99673.53;;;22.23;58.25
38716;BME280;24833;49.324;8.694;2023-09-19T12:43:28;99660.22;;;22.27;60.23
38716;BME280;24833;49.324;8.694;2023-09-19T12:45:55;99659.66;;;22.35;59.27
38716;BME280;24833;49.324;8.694;2023-09-19T12:48:26;99664.25;;;22.40;58.63
38716;BME280;24833;49.324;8.694;2023-09-19T12:51:11;99674.31;;;22.44;60.40
38716;BME280;24833;49.324;8.694;2023-09-19T12:53:42;99662.03;;;22.52;59.57
38716;BME280;24833;49.324;8.694;2023-09-19T12:56:13;99672.09;;;22.56;57.91
38716;BME280;24833;49.324;8.694;2023-09-19T12:59:04;99654.09;;;22.66;58.56
38716;BME280;24833;49.324;8.694;2023-09-19T13:01:31;99654.09;;;22.71;57.28
38716;BME280;24833;49.324;8.694;2023-09-19T13:04:16;99672.34;;;22.70;54.98
38716;BME280;24833;49.324;8.694;2023-09-19T13:06:52;99661.22;;;22.62;53.96
38716;BME280;24833;49.324;8.694;2023-09-19T13:09:22;99655.78;;;22.56;54.32
38716;BME280;24833;49.324;8.694;2023-09-19T13:11:51;99659.31;;;22.52;56.13
38716;BME280;24833;49.324;8.694;2023-09-19T13:14:23;99646.50;;;22.57;55.10
38716;BME280;24833;49.324;8.694;2023-09-19T13:17:07;99657.94;;;22.60;54.34
38716;BME280;24833;49.324;8.694;2023-09-19T13:19:51;99651.13;;;22.62;55.17
38716;BME280;24833;49.324;8.694;2023-09-19T13:22:45;99639.13;;;22.68;55.75
38716;BME280;24833;49.324;8.694;2023-09-19T13:25:18;99646.72;;;22.71;56.28
38716;BME280;24833;49.324;8.694;2023-09-19T13:27:51;99648.63;;;22.81;53.96
38716;BME280;24833;49.324;8.694;2023-09-19T13:30:20;99637.44;;;22.82;55.61
38716;BME280;24833;49.324;8.694;2023-09-19T13:32:48;99639.06;;;22.83;54.71
38716;BME280;24833;49.324;8.694;2023-09-19T13:35:15;99639.34;;;22.87;53.58
38716;BME280;24833;49.324;8.694;2023-09-19T13:37:43;99640.44;;;22.86;54.31
38716;BME280;24833;49.324;8.694;2023-09-19T13:40:17;99635.53;;;22.83;54.38
38716;BME280;24833;49.324;8.694;2023-09-19T13:42:44;99634.41;;;22.84;54.78
38716;BME280;24833;49.324;8.694;2023-09-19T13:45:11;99626.25;;;22.89;55.07
38716;BME280;24833;49.324;8.694;2023-09-19T13:47:44;99636.03;;;22.95;53.71
38716;BME280;24833;49.324;8.694;2023-09-19T13:50:11;99636.31;;;22.94;53.02
38716;BME280;24833;49.324;8.694;2023-09-19T13:52:39;99623.78;;;22.93;54.47
38716;BME280;24833;49.324;8.694;2023-09-19T13:55:06;99628.97;;;22.94;53.07
38716;BME280;24833;49.324;8.694;2023-09-19T13:57:34;99630.03;;;22.93;53.12
38716;BME280;24833;49.324;8.694;2023-09-19T14:00:01;99626.78;;;22.96;52.62
38716;BME280;24833;49.324;8.694;2023-09-19T14:02:38;99624.59;;;22.93;51.77